sensor_id;sensor_type;location;lat;lon;timestamp;pressure;altitude;pressure_sealevel;temperature;humidity
75290;BME280;63883;48.996;20.804;2023-09-19T00:00:23;96282.94;;;16.78;100.00
75290;BME280;63883;48.996;20.804;2023-09-19T00:03:11;96283.09;;;16.75;100.00
75290;BME280;63883;48.996;20.804;2023-09-19T00:05:38;96288.25;;;16.75;100.00
75290;BME280;63883;48.996;20.804;2023-09-19T00:08:04;96284.09;;;16.72;100.00
75290;BME280;63883;48.996;20.804;2023-09-19T00:10:31;96288.09;;;16.78;100.00
75290;BME280;63883;48.996;20.804;2023-09-19T00:13:01;96287.13;;;16.79;100.00
75290;BME280;63883;48.996;20.804;2023-09-19T00:15:35;96276.50;;;16.85;100.00
75290;BME280;63883;48.996;20.804;2023-09-19T00:18:03;96275.41;;;16.89;100.00
75290;BME280;63883;48.996;20.804;2023-09-19T00:20:32;96275.97;;;16.94;100.00
75290;BME280;63883;48.996;20.804;2023-09-19T00:22:58;96286.09;;;16.97;100.00
75290;BME280;63883;48.996;20.804;2023-09-19T00:25:24;96283.19;;;17.03;100.00
75290;BME280;63883;48.996;20.804;2023-09-19T00:27:51;96282.22;;;17.20;100.00
75290;BME280;63883;48.996;20.804;2023-09-19T00:30:17;96270.16;;;17.35;100.00
75290;BME280;63883;48.996;20.804;2023-09-19T00:32:47;96265.56;;;17.54;100.00
75290;BME280;63883;48.996;20.804;2023-09-19T00:35:14;96256.41;;;17.64;100.00
75290;BME280;63883;48.996;20.804;2023-09-19T00:37:41;96264.59;;;17.71;100.00
75290;BME280;63883;48.996;20.804;2023-09-19T00:40:08;96247.91;;;17.76;100.00
75290;BME280;63883;48.996;20.804;2023-09-19T00:42:42;96255.09;;;17.71;100.00
75290;BME280;63883;48.996;20.804;2023-09-19T00:45:08;96249.13;;;17.71;100.00
75290;BME280;63883;48.996;20.804;2023-09-19T00:47:44;96257.56;;;17.73;100.00
75290;BME280;63883;48.996;20.804;2023-09-19T00:50:11;96245.63;;;17.72;100.00
75290;BME280;63883;48.996;20.804;2023-09-19T00:52:42;96248.19;;;17.72;100.00
75290;BME280;63883;48.996;20.804;2023-09-19T00:55:08;96247.06;;;17.76;100.00
75290;BME280;63883;48.996;20.804;2023-09-19T00:57:36;96238.81;;;17.71;100.00
75290;BME280;63883;48.996;20.804;2023-09-19T01:00:05;96236.31;;;17.69;100.00
75290;BME280;63883;48.996;20.804;2023-09-19T01:02:33;96236.09;;;17.72;100.00
75290;BME280;63883;48.996;20.804;2023-09-19T01:04:59;96239.16;;;17.79;100.00
75290;BME280;63883;48.996;20.804;2023-09-19T01:07:27;96229.75;;;17.78;100.00
75290;BME280;63883;48.996;20.804;2023-09-19T01:09:56;96226.44;;;17.76;100.00
75290;BME280;63883;48.996;20.804;2023-09-19T01:12:37;96223.84;;;17.76;100.00
75290;BME280;63883;48.996;20.804;2023-09-19T01:18:16;96226.00;;;17.69;100.00
75290;BME280;63883;48.996;20.804;2023-09-19T01:20:57;96227.56;;;17.72;100.00
75290;BME280;63883;48.996;20.804;2023-09-19T01:24:01;96215.28;;;17.75;100.00
75290;BME280;63883;48.996;20.804;2023-09-19T01:29:39;96208.09;;;17.80;100.00
75290;BME280;63883;48.996;20.804;2023-09-19T01:32:08;96206.25;;;17.82;100.00
75290;BME280;63883;48.996;20.804;2023-09-19T01:34:56;96211.03;;;17.88;100.00
75290;BME280;63883;48.996;20.804;2023-09-19T01:37:24;96206.06;;;17.85;100.00
75290;BME280;63883;48.996;20.804;2023-09-19T01:39:53;96211.41;;;17.82;100.00
75290;BME280;63883;48.996;20.804;2023-09-19T01:42:27;96205.63;;;17.79;100.00
75290;BME280;63883;48.996;20.804;2023-09-19T01:45:07;96201.38;;;17.78;100.00
75290;BME280;63883;48.996;20.804;2023-09-19T01:47:55;96198.81;;;17.78;99.81
75290;BME280;63883;48.996;20.804;2023-09-19T01:50:35;96202.69;;;17.71;100.00
75290;BME280;63883;48.996;20.804;2023-09-19T01:53:26;96196.50;;;17.73;99.82
75290;BME280;63883;48.996;20.804;2023-09-19T01:55:57;96193.53;;;17.65;100.00
75290;BME280;63883;48.996;20.804;2023-09-19T01:58:35;96184.41;;;17.60;100.00
75290;BME280;63883;48.996;20.804;2023-09-19T02:01:05;96182.22;;;17.53;100.00
75290;BME280;63883;48.996;20.804;2023-09-19T02:03:34;96173.84;;;17.50;100.00
75290;BME280;63883;48.996;20.804;2023-09-19T02:06:01;96178.44;;;17.45;100.00
75290;BME280;63883;48.996;20.804;2023-09-19T02:08:30;96178.81;;;17.39;100.00
75290;BME280;63883;48.996;20.804;2023-09-19T02:10:59;96174.56;;;17.38;100.00
75290;BME280;63883;48.996;20.804;2023-09-19T02:13:25;96171.44;;;17.33;100.00
75290;BME280;63883;48.996;20.804;2023-09-19T02:15:53;96171.81;;;17.27;100.00
75290;BME280;63883;48.996;20.804;2023-09-19T02:18:19;96175.88;;;17.31;100.00
75290;BME280;63883;48.996;20.804;2023-09-19T02:20:45;96174.94;;;17.32;100.00
75290;BME280;63883;48.996;20.804;2023-09-19T02:23:12;96174.94;;;17.32;100.00
75290;BME280;63883;48.996;20.804;2023-09-19T02:25:38;96168.13;;;17.31;100.00
75290;BME280;63883;48.996;20.804;2023-09-19T02:28:04;96160.41;;;17.31;99.39
75290;BME280;63883;48.996;20.804;2023-09-19T02:30:31;96164.53;;;17.33;100.00
75290;BME280;63883;48.996;20.804;2023-09-19T02:32:57;96158.72;;;17.30;100.00
75290;BME280;63883;48.996;20.804;2023-09-19T02:35:22;96161.44;;;17.28;100.00
75290;BME280;63883;48.996;20.804;2023-09-19T02:37:48;96163.44;;;17.23;100.00
75290;BME280;63883;48.996;20.804;2023-09-19T02:40:15;96160.22;;;17.20;100.00
75290;BME280;63883;48.996;20.804;2023-09-19T02:42:55;96156.06;;;17.17;100.00
75290;BME280;63883;48.996;20.804;2023-09-19T02:45:21;96160.59;;;17.13;100.00
75290;BME280;63883;48.996;20.804;2023-09-19T02:47:47;96161.69;;;17.09;100.00
75290;BME280;63883;48.996;20.804;2023-09-19T02:50:14;96157.28;;;17.11;100.00
75290;BME280;63883;48.996;20.804;2023-09-19T02:52:43;96149.63;;;17.10;100.00
75290;BME280;63883;48.996;20.804;2023-09-19T02:55:11;96143.66;;;17.09;100.00
75290;BME280;63883;48.996;20.804;2023-09-19T02:57:40;96133.72;;;17.03;100.00
75290;BME280;63883;48.996;20.804;2023-09-19T03:00:09;96141.59;;;17.00;100.00
75290;BME280;63883;48.996;20.804;2023-09-19T03:02:37;96136.38;;;17.02;100.00
75290;BME280;63883;48.996;20.804;2023-09-19T03:05:05;96139.03;;;17.00;100.00
75290;BME280;63883;48.996;20.804;2023-09-19T03:07:31;96139.78;;;17.02;100.00
75290;BME280;63883;48.996;20.804;2023-09-19T03:09:57;96126.44;;;16.96;100.00
75290;BME280;63883;48.996;20.804;2023-09-19T03:12:22;96131.59;;;16.96;100.00
75290;BME280;63883;48.996;20.804;2023-09-19T03:14:48;96139.03;;;17.00;100.00
75290;BME280;63883;48.996;20.804;2023-09-19T03:17:15;96132.34;;;16.98;100.00
75290;BME280;63883;48.996;20.804;2023-09-19T03:19:41;96129.69;;;16.99;100.00
75290;BME280;63883;48.996;20.804;2023-09-19T03:22:07;96127.19;;;16.98;100.00
75290;BME280;63883;48.996;20.804;2023-09-19T03:24:33;96124.78;;;16.95;100.00
75290;BME280;63883;48.996;20.804;2023-09-19T03:27:01;96124.22;;;16.90;100.00
75290;BME280;63883;48.996;20.804;2023-09-19T03:29:27;96124.97;;;16.92;100.00
75290;BME280;63883;48.996;20.804;2023-09-19T03:31:52;96112.47;;;16.86;100.00
75290;BME280;63883;48.996;20.804;2023-09-19T03:34:20;96109.69;;;16.89;100.00
75290;BME280;63883;48.996;20.804;2023-09-19T03:36:46;96108.13;;;16.86;100.00
75290;BME280;63883;48.996;20.804;2023-09-19T03:39:12;96103.91;;;16.85;100.00
75290;BME280;63883;48.996;20.804;2023-09-19T03:41:37;96107.31;;;16.86;100.00
75290;BME280;63883;48.996;20.804;2023-09-19T03:44:04;96108.13;;;16.86;100.00
75290;BME280;63883;48.996;20.804;2023-09-19T03:46:30;96108.22;;;16.85;100.00
75290;BME280;63883;48.996;20.804;2023-09-19T03:48:56;96110.97;;;16.82;100.00
75290;BME280;63883;48.996;20.804;2023-09-19T03:51:21;96111.81;;;16.82;100.00
75290;BME280;63883;48.996;20.804;2023-09-19T03:53:47;96106.28;;;16.74;100.00
75290;BME280;63883;48.996;20.804;2023-09-19T03:56:14;96106.47;;;16.71;100.00
75290;BME280;63883;48.996;20.804;2023-09-19T03:58:40;96112.78;;;16.65;100.00
75290;BME280;63883;48.996;20.804;2023-09-19T04:01:06;96120.78;;;16.61;100.00
75290;BME280;63883;48.996;20.804;2023-09-19T04:03:35;96120.22;;;16.56;100.00
75290;BME280;63883;48.996;20.804;2023-09-19T04:06:15;96122.22;;;16.51;100.00
75290;BME280;63883;48.996;20.804;2023-09-19T04:08:41;96115.03;;;16.42;100.00
75290;BME280;63883;48.996;20.804;2023-09-19T04:11:07;96121.63;;;16.31;100.00
75290;BME280;63883;48.996;20.804;2023-09-19T04:13:33;96117.00;;;16.22;100.00
75290;BME280;63883;48.996;20.804;2023-09-19T04:15:58;96116.44;;;16.17;100.00
75290;BME280;63883;48.996;20.804;2023-09-19T04:18:25;96114.38;;;16.08;100.00
75290;BME280;63883;48.996;20.804;2023-09-19T04:20:51;96110.97;;;16.08;100.00
75290;BME280;63883;48.996;20.804;2023-09-19T04:23:17;96107.41;;;16.10;100.00
75290;BME280;63883;48.996;20.804;2023-09-19T04:25:43;96102.53;;;16.06;100.00
75290;BME280;63883;48.996;20.804;2023-09-19T04:28:09;96100.78;;;16.06;100.00
75290;BME280;63883;48.996;20.804;2023-09-19T04:30:37;96109.56;;;16.02;100.00
75290;BME280;63883;48.996;20.804;2023-09-19T04:33:03;96105.34;;;16.01;100.00
75290;BME280;63883;48.996;20.804;2023-09-19T04:35:30;96107.84;;;16.02;100.00
75290;BME280;63883;48.996;20.804;2023-09-19T04:37:57;96104.34;;;16.04;100.00
75290;BME280;63883;48.996;20.804;2023-09-19T04:40:23;96100.88;;;16.05;100.00
75290;BME280;63883;48.996;20.804;2023-09-19T04:42:58;96093.31;;;16.01;100.00
75290;BME280;63883;48.996;20.804;2023-09-19T04:45:25;96098.22;;;16.06;100.00
75290;BME280;63883;48.996;20.804;2023-09-19T04:47:52;96088.63;;;16.08;100.00
75290;BME280;63883;48.996;20.804;2023-09-19T04:50:18;96083.41;;;16.10;100.00
75290;BME280;63883;48.996;20.804;2023-09-19T04:52:45;96087.38;;;16.15;100.00
75290;BME280;63883;48.996;20.804;2023-09-19T04:55:11;96087.97;;;16.20;100.00
75290;BME280;63883;48.996;20.804;2023-09-19T04:57:51;96093.81;;;16.22;100.00
75290;BME280;63883;48.996;20.804;2023-09-19T05:00:21;96092.75;;;16.26;100.00
75290;BME280;63883;48.996;20.804;2023-09-19T05:02:50;96093.66;;;16.25;100.00
75290;BME280;63883;48.996;20.804;2023-09-19T05:05:17;96096.31;;;16.24;100.00
75290;BME280;63883;48.996;20.804;2023-09-19T05:07:43;96093.66;;;16.25;100.00
75290;BME280;63883;48.996;20.804;2023-09-19T05:10:12;96095.00;;;16.17;100.00
75290;BME280;63883;48.996;20.804;2023-09-19T05:12:39;96092.72;;;16.12;100.00
75290;BME280;63883;48.996;20.804;2023-09-19T05:15:06;96090.38;;;16.08;100.00
75290;BME280;63883;48.996;20.804;2023-09-19T05:17:35;96092.47;;;16.01;100.00
75290;BME280;63883;48.996;20.804;2023-09-19T05:20:02;96095.06;;;16.01;100.00
75290;BME280;63883;48.996;20.804;2023-09-19T05:22:42;96093.50;;;15.98;100.00
75290;BME280;63883;48.996;20.804;2023-09-19T05:25:09;96092.66;;;15.98;100.00
75290;BME280;63883;48.996;20.804;2023-09-19T05:27:35;96084.03;;;15.99;100.00
75290;BME280;63883;48.996;20.804;2023-09-19T05:30:01;96083.28;;;15.97;100.00
75290;BME280;63883;48.996;20.804;2023-09-19T05:32:27;96078.97;;;15.97;100.00
75290;BME280;63883;48.996;20.804;2023-09-19T05:34:52;96073.75;;;15.99;100.00
75290;BME280;63883;48.996;20.804;2023-09-19T05:37:19;96072.66;;;16.03;100.00
75290;BME280;63883;48.996;20.804;2023-09-19T05:39:45;96075.28;;;16.01;100.00
75290;BME280;63883;48.996;20.804;2023-09-19T05:42:11;96077.72;;;16.05;100.00
75290;BME280;63883;48.996;20.804;2023-09-19T05:44:36;96077.63;;;16.06;100.00
75290;BME280;63883;48.996;20.804;2023-09-19T05:47:05;96072.47;;;16.06;100.00
75290;BME280;63883;48.996;20.804;2023-09-19T05:49:35;96080.19;;;16.06;100.00
75290;BME280;63883;48.996;20.804;2023-09-19T05:52:05;96080.75;;;16.11;100.00
75290;BME280;63883;48.996;20.804;2023-09-19T05:54:30;96079.94;;;16.11;100.00
75290;BME280;63883;48.996;20.804;2023-09-19T05:56:56;96084.09;;;16.13;100.00
75290;BME280;63883;48.996;20.804;2023-09-19T05:59:23;96084.88;;;16.14;100.00
75290;BME280;63883;48.996;20.804;2023-09-19T06:01:49;96083.25;;;16.13;100.00
75290;BME280;63883;48.996;20.804;2023-09-19T06:04:14;96080.69;;;16.13;100.00
75290;BME280;63883;48.996;20.804;2023-09-19T06:06:40;96079.00;;;16.12;100.00
75290;BME280;63883;48.996;20.804;2023-09-19T06:09:06;96080.41;;;16.17;100.00
75290;BME280;63883;48.996;20.804;2023-09-19T06:11:34;96083.06;;;16.16;100.00
75290;BME280;63883;48.996;20.804;2023-09-19T06:14:03;96082.22;;;16.15;100.00
75290;BME280;63883;48.996;20.804;2023-09-19T06:16:32;96083.88;;;16.16;100.00
75290;BME280;63883;48.996;20.804;2023-09-19T06:18:58;96089.03;;;16.16;100.00
75290;BME280;63883;48.996;20.804;2023-09-19T06:21:27;96081.97;;;16.20;100.00
75290;BME280;63883;48.996;20.804;2023-09-19T06:23:53;96089.50;;;16.23;100.00
75290;BME280;63883;48.996;20.804;2023-09-19T06:26:19;96087.03;;;16.21;100.00
75290;BME280;63883;48.996;20.804;2023-09-19T06:28:45;96089.50;;;16.23;100.00
75290;BME280;63883;48.996;20.804;2023-09-19T06:31:10;96095.31;;;16.26;100.00
75290;BME280;63883;48.996;20.804;2023-09-19T06:33:37;96092.84;;;16.25;100.00
75290;BME280;63883;48.996;20.804;2023-09-19T06:36:06;96105.25;;;16.32;100.00
75290;BME280;63883;48.996;20.804;2023-09-19T06:38:32;96103.44;;;16.34;100.00
75290;BME280;63883;48.996;20.804;2023-09-19T06:41:00;96108.38;;;16.37;100.00
75290;BME280;63883;48.996;20.804;2023-09-19T06:43:35;96103.06;;;16.40;100.00
75290;BME280;63883;48.996;20.804;2023-09-19T06:46:01;96102.06;;;16.43;100.00
75290;BME280;63883;48.996;20.804;2023-09-19T06:48:28;96097.72;;;16.44;100.00
75290;BME280;63883;48.996;20.804;2023-09-19T06:50:56;96102.34;;;16.53;100.00
75290;BME280;63883;48.996;20.804;2023-09-19T06:53:24;96101.72;;;16.49;100.00
75290;BME280;63883;48.996;20.804;2023-09-19T06:55:51;96108.69;;;16.47;100.00
75290;BME280;63883;48.996;20.804;2023-09-19T06:58:16;96115.88;;;16.42;100.00
75290;BME280;63883;48.996;20.804;2023-09-19T07:00:42;96111.03;;;16.36;100.00
75290;BME280;63883;48.996;20.804;2023-09-19T07:03:08;96114.06;;;16.28;100.00
75290;BME280;63883;48.996;20.804;2023-09-19T07:05:38;96112.66;;;16.23;100.00
75290;BME280;63883;48.996;20.804;2023-09-19T07:08:05;96115.59;;;16.17;100.00
75290;BME280;63883;48.996;20.804;2023-09-19T07:10:32;96120.00;;;16.15;100.00
75290;BME280;63883;48.996;20.804;2023-09-19T07:12:59;96114.28;;;16.10;100.00
75290;BME280;63883;48.996;20.804;2023-09-19T07:15:25;96115.28;;;16.07;100.00
75290;BME280;63883;48.996;20.804;2023-09-19T07:17:52;96117.13;;;16.05;100.00
75290;BME280;63883;48.996;20.804;2023-09-19T07:20:23;96120.78;;;16.01;100.00
75290;BME280;63883;48.996;20.804;2023-09-19T07:22:51;96125.00;;;16.02;100.00
75290;BME280;63883;48.996;20.804;2023-09-19T07:25:17;96116.38;;;16.03;100.00
75290;BME280;63883;48.996;20.804;2023-09-19T07:27:43;96119.78;;;16.04;100.00
75290;BME280;63883;48.996;20.804;2023-09-19T07:30:09;96104.50;;;16.00;100.00
75290;BME280;63883;48.996;20.804;2023-09-19T07:32:37;96109.56;;;16.02;100.00
75290;BME280;63883;48.996;20.804;2023-09-19T07:35:04;96116.38;;;16.03;100.00
75290;BME280;63883;48.996;20.804;2023-09-19T07:37:31;96110.97;;;16.08;100.00
75290;BME280;63883;48.996;20.804;2023-09-19T07:40:05;96115.75;;;16.14;100.00
75290;BME280;63883;48.996;20.804;2023-09-19T07:42:36;96110.00;;;16.24;100.00
75290;BME280;63883;48.996;20.804;2023-09-19T07:45:07;96118.06;;;16.34;100.00
75290;BME280;63883;48.996;20.804;2023-09-19T07:47:33;96118.78;;;16.36;100.00
75290;BME280;63883;48.996;20.804;2023-09-19T07:50:00;96120.00;;;16.45;100.00
75290;BME280;63883;48.996;20.804;2023-09-19T07:52:29;96117.06;;;16.51;100.00
75290;BME280;63883;48.996;20.804;2023-09-19T07:54:55;96117.44;;;16.59;100.00
75290;BME280;63883;48.996;20.804;2023-09-19T07:57:22;96100.66;;;16.67;100.00
75290;BME280;63883;48.996;20.804;2023-09-19T07:59:48;96103.41;;;16.78;100.00
75290;BME280;63883;48.996;20.804;2023-09-19T08:02:13;96103.91;;;16.85;100.00
75290;BME280;63883;48.996;20.804;2023-09-19T08:04:45;96101.03;;;16.90;100.00
75290;BME280;63883;48.996;20.804;2023-09-19T08:07:12;96090.91;;;16.87;100.00
75290;BME280;63883;48.996;20.804;2023-09-19T08:09:39;96091.03;;;16.85;100.00
75290;BME280;63883;48.996;20.804;2023-09-19T08:12:06;96097.72;;;16.88;100.00
75290;BME280;63883;48.996;20.804;2023-09-19T08:14:33;96087.41;;;16.88;100.00
75290;BME280;63883;48.996;20.804;2023-09-19T08:16:59;96087.88;;;16.94;100.00
75290;BME280;63883;48.996;20.804;2023-09-19T08:19:26;96092.78;;;16.99;100.00
75290;BME280;63883;48.996;20.804;2023-09-19T08:21:58;96074.34;;;17.05;100.00
75290;BME280;63883;48.996;20.804;2023-09-19T08:24:28;96089.88;;;17.17;100.00
75290;BME280;63883;48.996;20.804;2023-09-19T08:26:55;96084.56;;;17.21;100.00
75290;BME280;63883;48.996;20.804;2023-09-19T08:29:22;96088.13;;;17.32;100.00
75290;BME280;63883;48.996;20.804;2023-09-19T08:32:01;96088.38;;;17.42;100.00
75290;BME280;63883;48.996;20.804;2023-09-19T08:34:27;96100.38;;;17.43;100.00
75290;BME280;63883;48.996;20.804;2023-09-19T08:36:54;96097.31;;;17.36;100.00
75290;BME280;63883;48.996;20.804;2023-09-19T08:39:25;96091.16;;;17.39;100.00
75290;BME280;63883;48.996;20.804;2023-09-19T08:42:01;96088.28;;;17.43;100.00
75290;BME280;63883;48.996;20.804;2023-09-19T08:44:28;96096.47;;;17.50;100.00
75290;BME280;63883;48.996;20.804;2023-09-19T08:47:15;96085.78;;;17.56;100.00
75290;BME280;63883;48.996;20.804;2023-09-19T08:50:00;96085.56;;;17.59;100.00
75290;BME280;63883;48.996;20.804;2023-09-19T08:52:33;96090.38;;;17.65;100.00
75290;BME280;63883;48.996;20.804;2023-09-19T08:55:02;96092.47;;;17.58;100.00
75290;BME280;63883;48.996;20.804;2023-09-19T08:57:36;96097.53;;;17.60;100.00
75290;BME280;63883;48.996;20.804;2023-09-19T09:00:05;96098.03;;;17.52;100.00
75290;BME280;63883;48.996;20.804;2023-09-19T09:02:37;96111.22;;;17.48;100.00
75290;BME280;63883;48.996;20.804;2023-09-19T09:05:07;96110.56;;;17.44;100.00
75290;BME280;63883;48.996;20.804;2023-09-19T09:07:36;96122.34;;;17.48;100.00
75290;BME280;63883;48.996;20.804;2023-09-19T09:10:03;96117.00;;;17.51;100.00
75290;BME280;63883;48.996;20.804;2023-09-19T09:12:29;96119.41;;;17.54;100.00
75290;BME280;63883;48.996;20.804;2023-09-19T09:14:55;96127.50;;;17.48;100.00
75290;BME280;63883;48.996;20.804;2023-09-19T09:17:23;96126.16;;;17.43;100.00
75290;BME280;63883;48.996;20.804;2023-09-19T09:19:53;96127.69;;;17.45;100.00
75290;BME280;63883;48.996;20.804;2023-09-19T09:22:19;96126.84;;;17.45;100.00
75290;BME280;63883;48.996;20.804;2023-09-19T09:24:52;96127.78;;;17.44;100.00
75290;BME280;63883;48.996;20.804;2023-09-19T09:27:23;96122.63;;;17.44;100.00
75290;BME280;63883;48.996;20.804;2023-09-19T09:29:51;96128.34;;;17.49;100.00
75290;BME280;63883;48.996;20.804;2023-09-19T09:32:24;96130.84;;;17.50;100.00
75290;BME280;63883;48.996;20.804;2023-09-19T09:34:53;96141.03;;;17.52;100.00
75290;BME280;63883;48.996;20.804;2023-09-19T09:37:20;96141.41;;;17.46;100.00
75290;BME280;63883;48.996;20.804;2023-09-19T09:39:53;96144.91;;;17.45;100.00
75290;BME280;63883;48.996;20.804;2023-09-19T09:42:35;96147.97;;;17.37;100.00
75290;BME280;63883;48.996;20.804;2023-09-19T09:45:20;96143.09;;;17.33;100.00
75290;BME280;63883;48.996;20.804;2023-09-19T09:47:58;96164.47;;;17.35;100.00
75290;BME280;63883;48.996;20.804;2023-09-19T09:50:31;96159.47;;;17.32;100.00
75290;BME280;63883;48.996;20.804;2023-09-19T09:53:03;96164.09;;;17.27;100.00
75290;BME280;63883;48.996;20.804;2023-09-19T09:58:34;96175.69;;;17.20;100.00
75290;BME280;63883;48.996;20.804;2023-09-19T10:01:01;96174.41;;;17.12;100.00
75290;BME280;63883;48.996;20.804;2023-09-19T10:03:40;96181.56;;;17.07;100.00
75290;BME280;63883;48.996;20.804;2023-09-19T10:06:11;96182.97;;;16.99;100.00
75290;BME280;63883;48.996;20.804;2023-09-19T10:09:08;96198.13;;;16.89;100.00
75290;BME280;63883;48.996;20.804;2023-09-19T10:11:48;96198.47;;;16.83;100.00
75290;BME280;63883;48.996;20.804;2023-09-19T10:14:25;96200.38;;;16.79;100.00
75290;BME280;63883;48.996;20.804;2023-09-19T10:16:56;96203.16;;;16.76;100.00
75290;BME280;63883;48.996;20.804;2023-09-19T10:19:47;96208.56;;;16.72;100.00
75290;BME280;63883;48.996;20.804;2023-09-19T10:22:19;96207.16;;;16.66;100.00
75290;BME280;63883;48.996;20.804;2023-09-19T10:24:49;96199.84;;;16.59;100.00
75290;BME280;63883;48.996;20.804;2023-09-19T10:27:21;96201.78;;;16.55;100.00
75290;BME280;63883;48.996;20.804;2023-09-19T10:29:49;96204.28;;;16.57;100.00
75290;BME280;63883;48.996;20.804;2023-09-19T10:32:20;96204.44;;;16.54;100.00
75290;BME280;63883;48.996;20.804;2023-09-19T10:34:49;96206.84;;;16.57;100.00
75290;BME280;63883;48.996;20.804;2023-09-19T10:37:20;96200.34;;;16.65;100.00
75290;BME280;63883;48.996;20.804;2023-09-19T10:39:48;96197.69;;;16.67;100.00
75290;BME280;63883;48.996;20.804;2023-09-19T10:42:19;96197.19;;;16.76;100.00
75290;BME280;63883;48.996;20.804;2023-09-19T10:44:47;96197.81;;;16.79;100.00
75290;BME280;63883;48.996;20.804;2023-09-19T10:47:19;96198.94;;;16.90;100.00
75290;BME280;63883;48.996;20.804;2023-09-19T10:49:46;96194.09;;;16.99;100.00
75290;BME280;63883;48.996;20.804;2023-09-19T10:52:18;96207.97;;;16.97;100.00
75290;BME280;63883;48.996;20.804;2023-09-19T10:54:50;96199.59;;;16.93;100.00
75290;BME280;63883;48.996;20.804;2023-09-19T10:57:24;96197.66;;;16.97;100.00
75290;BME280;63883;48.996;20.804;2023-09-19T11:00:08;96201.91;;;16.98;100.00
75290;BME280;63883;48.996;20.804;2023-09-19T11:05:40;96192.59;;;16.95;100.00
75290;BME280;63883;48.996;20.804;2023-09-19T11:08:07;96202.91;;;16.95;100.00
75290;BME280;63883;48.996;20.804;2023-09-19T11:10:51;96204.41;;;16.99;100.00
75290;BME280;63883;48.996;20.804;2023-09-19T11:13:27;96201.47;;;17.05;100.00
75290;BME280;63883;48.996;20.804;2023-09-19T11:18:52;96203.13;;;17.06;100.00
75290;BME280;63883;48.996;20.804;2023-09-19T11:29:31;96202.94;;;17.24;100.00
75290;BME280;63883;48.996;20.804;2023-09-19T11:31:57;96198.44;;;17.27;100.00
75290;BME280;63883;48.996;20.804;2023-09-19T11:34:44;96204.22;;;17.31;100.00
75290;BME280;63883;48.996;20.804;2023-09-19T11:39:40;96201.94;;;17.26;100.00
75290;BME280;63883;48.996;20.804;2023-09-19T11:45:07;96211.97;;;17.31;100.00
75290;BME280;63883;48.996;20.804;2023-09-19T11:47:33;96208.00;;;17.39;100.00
75290;BME280;63883;48.996;20.804;2023-09-19T11:50:01;96220.81;;;17.41;100.00
75290;BME280;63883;48.996;20.804;2023-09-19T11:52:28;96227.63;;;17.42;100.00
75290;BME280;63883;48.996;20.804;2023-09-19T11:55:00;96217.94;;;17.45;100.00
75290;BME280;63883;48.996;20.804;2023-09-19T11:57:28;96224.13;;;17.43;100.00
75290;BME280;63883;48.996;20.804;2023-09-19T11:59:55;96218.22;;;17.41;100.00
75290;BME280;63883;48.996;20.804;2023-09-19T12:02:38;96217.69;;;17.36;100.00
75290;BME280;63883;48.996;20.804;2023-09-19T12:05:05;96219.06;;;17.41;100.00
75290;BME280;63883;48.996;20.804;2023-09-19T12:07:42;96212.72;;;17.33;100.00
75290;BME280;63883;48.996;20.804;2023-09-19T12:10:09;96209.28;;;17.32;100.00
75290;BME280;63883;48.996;20.804;2023-09-19T12:12:37;96213.25;;;17.38;100.00
75290;BME280;63883;48.996;20.804;2023-09-19T12:15:03;96209.59;;;17.42;100.00
75290;BME280;63883;48.996;20.804;2023-09-19T12:17:39;96211.31;;;17.55;100.00
75290;BME280;63883;48.996;20.804;2023-09-19T12:20:06;96211.78;;;17.76;100.00
75290;BME280;63883;48.996;20.804;2023-09-19T12:22:45;96205.94;;;17.87;100.00
75290;BME280;63883;48.996;20.804;2023-09-19T12:25:13;96199.78;;;17.89;100.00
75290;BME280;63883;48.996;20.804;2023-09-19T12:27:42;96214.16;;;17.93;100.00
75290;BME280;63883;48.996;20.804;2023-09-19T12:30:10;96208.53;;;17.87;100.00
75290;BME280;63883;48.996;20.804;2023-09-19T12:32:40;96206.59;;;17.90;100.00
75290;BME280;63883;48.996;20.804;2023-09-19T12:35:06;96212.28;;;17.95;100.00
75290;BME280;63883;48.996;20.804;2023-09-19T12:37:44;96214.88;;;17.95;100.00
75290;BME280;63883;48.996;20.804;2023-09-19T12:40:21;96208.78;;;17.97;100.00
75290;BME280;63883;48.996;20.804;2023-09-19T12:42:54;96221.22;;;18.04;100.00
75290;BME280;63883;48.996;20.804;2023-09-19T12:45:30;96212.47;;;18.07;100.00
75290;BME280;63883;48.996;20.804;2023-09-19T12:48:22;96211.72;;;18.05;100.00
75290;BME280;63883;48.996;20.804;2023-09-19T12:51:05;96217.63;;;18.07;100.00
75290;BME280;63883;48.996;20.804;2023-09-19T12:53:36;96214.22;;;18.06;100.00
75290;BME280;63883;48.996;20.804;2023-09-19T12:56:06;96218.59;;;18.18;100.00
75290;BME280;63883;48.996;20.804;2023-09-19T12:58:34;96223.16;;;18.15;100.00
75290;BME280;63883;48.996;20.804;2023-09-19T13:01:00;96218.88;;;18.28;100.00
75290;BME280;63883;48.996;20.804;2023-09-19T13:03:30;96224.56;;;18.33;100.00
75290;BME280;63883;48.996;20.804;2023-09-19T13:06:02;96224.91;;;18.41;100.00
75290;BME280;63883;48.996;20.804;2023-09-19T13:08:39;96222.66;;;18.49;100.00
75290;BME280;63883;48.996;20.804;2023-09-19T13:13:46;96224.69;;;18.44;100.00
75290;BME280;63883;48.996;20.804;2023-09-19T13:16:16;96227.03;;;18.34;100.00
75290;BME280;63883;48.996;20.804;2023-09-19T13:18:49;96227.16;;;18.46;100.00
75290;BME280;63883;48.996;20.804;2023-09-19T13:21:32;96230.03;;;18.28;100.00
75290;BME280;63883;48.996;20.804;2023-09-19T13:24:23;96223.19;;;18.27;100.00